Terminal Aerodrome Forecast
Issued by NWS

Home | Current Version | Previous Version | Text Only | Print | Product List | Glossary On
Versions: 1 2 3 4 5 6 7 8 9 10 11 12 13 14 15 16 17 18 19 20 21 22 23 24 25 26
000
FTUS46 KOTX 220520
TAFPUW
TAF
KPUW 220520Z 2206/2306 VRB03KT P6SM SCT080 BKN100
     FM221300 VRB03KT P6SM -SHRA SCT040 BKN060 OVC080
     FM222000 27007KT P6SM -SHRA VCTS SCT030 BKN050CB=

USA.gov is the U.S. government's official web portal to all federal, state and local government web resources and services.